Aviation Digital Data Service (ADDS)

Output produced by METARs form (0020 UTC 25 April 2015)
found at http://www.aviationweather.gov/adds/metars/
 
KBFD 242353Z AUTO 32011KT 10SM CLR 02/M08 A2995 RMK AO2 SLP159 T00171078 10050 20017 53007
KBFD 242253Z AUTO 29011KT 10SM CLR 03/M08 A2993 RMK AO2 SLP154 T00331083
KBFD 242153Z AUTO 31014G19KT 10SM CLR 04/M08 A2993 RMK AO2 SLP153 T00391078
KBFD 242053Z AUTO 32017G26KT 10SM CLR 04/M08 A2992 RMK AO2 PK WND 31028/1955 SLP149 T00441078 53001
KBFD 241953Z AUTO 32021G28KT 10SM CLR 05/M08 A2992 RMK AO2 PK WND 33030/1937 SLP149 T00501083
KBFD 241853Z AUTO 31022G30KT 10SM CLR 04/M08 A2992 RMK AO2 PK WND 32030/1758 SLP147 T00441078
KBFD 241753Z AUTO 31016G24KT 270V340 10SM CLR 04/M07 A2992 RMK AO2 PK WND 27030/1737 SLP148 T00441072 10044 21022 56004
KBFD 241653Z AUTO 30018G26KT 10SM FEW042 03/M07 A2992 RMK AO2 PK WND 29031/1638 SLP150 T00281072
KBFD 241553Z AUTO 30015G29KT 10SM FEW037 02/M08 A2993 RMK AO2 PK WND 30031/1505 SLP153 T00171078
KBFD 241453Z AUTO 29020G25KT 10SM SCT039 01/M08 A2993 RMK AO2 PK WND 31029/1420 SLP156 T00061078 56000
KBFD 241353Z AUTO 30013G30KT 10SM SCT037 00/M09 A2993 RMK AO2 PK WND 30030/1349 SLP156 T00001089
KBFD 241253Z AUTO 30012KT 10SM FEW022 M01/M07 A2993 RMK AO2 SLP158 T10111072
KBFD 241218Z AUTO 30011G20KT 10SM SCT018 M02/M07 A2993 RMK AO2 T10171067
KBFD 241153Z AUTO 29009KT 10SM BKN017 M02/M06 A2993 RMK AO2 SLP159 60000 70003 T10221061 11022 21033 53005
KBFD 241141Z AUTO 29009KT 10SM BKN019 M02/M06 A2993 RMK AO2 T10221061
KBFD 241130Z AUTO 29011KT 10SM SCT019 M03/M07 A2993 RMK AO2 T10281067
KBFD 241053Z AUTO 28009KT 10SM BKN018 BKN025 BKN032 M03/M06 A2993 RMK AO2 SLP156 T10281061
KBFD 241003Z AUTO 28009KT 10SM SCT018 BKN027 M03/M07 A2992 RMK AO2 T10331067
KBFD 240953Z AUTO 28008KT 10SM FEW016 SCT029 M03/M07 A2992 RMK AO2 SLP155 T10331067
KBFD 240932Z AUTO 29009KT 10SM SCT023 M03/M07 A2992 RMK AO2 T10331067
KBFD 240853Z AUTO 31007KT 10SM SCT025 BKN029 BKN035 M03/M07 A2992 RMK AO2 SLP153 60000 T10281072 51007
KBFD 240753Z AUTO 31015G25KT 9SM FEW022 SCT028 OVC039 M03/M08 A2992 RMK AO2 SNB0654E0656 SLP152 P0000 T10281078
KBFD 240735Z AUTO 31010G16KT 10SM BKN021 BKN028 OVC037 M02/M07 A2991 RMK AO2 SNB0654E0656 P0000 T10221067
KBFD 240653Z AUTO 30011KT 9SM FEW021 FEW026 OVC035 M03/M06 A2990 RMK AO2 SNE45 SLP146 P0000 T10281061
KBFD 240634Z AUTO 30013G18KT 7SM -SN FEW016 SCT021 OVC035 M03/M06 A2990 RMK AO2 P0000 T10281061
KBFD 240553Z AUTO 29006KT 6SM -SN SCT018 BKN027 OVC033 M03/M06 A2990 RMK AO2 SLP145 P0000 60000 T10281061 11028 21033 53003
KBFD 240543Z AUTO 29009KT 6SM -SN SCT018 BKN025 OVC032 M03/M06 A2990 RMK AO2 P0000 T10281061
KBFD 240528Z AUTO 30009KT 7SM -SN FEW017 SCT025 OVC033 M03/M06 A2990 RMK AO2 P0000 T10281061
KBFD 240519Z AUTO 30009KT 7SM -SN FEW016 BKN029 OVC033 M03/M06 A2990 RMK AO2 P0000 T10281061
KBFD 240453Z AUTO 29010KT 7SM -SN SCT025 OVC033 M03/M07 A2990 RMK AO2 SNB41 SLP145 P0000 T10281067 410111033
KBFD 240353Z AUTO 29010G20KT 9SM FEW024 OVC033 M03/M07 A2988 RMK AO2 SLP141 T10281072
KBFD 240339Z AUTO 30010KT 10SM SCT022 SCT028 OVC035 M03/M07 A2989 RMK AO2 T10281072
KBFD 240253Z AUTO 29009KT 10SM OVC023 M03/M07 A2989 RMK AO2 UPB0158E13SNB13E40 SLP143 P0000 60000 T10331067 51007
KBFD 240153Z AUTO 30010G18KT 10SM OVC020 M03/M07 A2988 RMK AO2 SNE34 SLP141 P0000 T10281072
KBFD 240053Z AUTO 30010KT 6SM -SN BKN021 OVC028 M03/M07 A2988 RMK AO2 SLP140 P0000 T10331067
KBFD 240018Z AUTO 29008KT 3SM -SN BKN019 BKN024 OVC030 M03/M07 A2987 RMK AO2 P0000 T10331067
KBFD 240007Z AUTO 29009KT 2 1/2SM -SN BKN019 OVC025 M03/M07 A2987 RMK AO2 P0000 T10281067
KBFD 232353Z AUTO 30012KT 4SM -SN BKN019 OVC026 M03/M07 A2987 RMK AO2 SNB47 SLP135 P0000 60000 T10281067 11017 21028 51013
KBFD 232253Z AUTO 29015G23KT 8SM OVC018 M03/M07 A2986 RMK AO2 SLP132 T10281067
KBFD 232153Z AUTO 30017G21KT 9SM OVC017 M02/M07 A2984 RMK AO2 SLP127 T10221067
KBFD 232053Z AUTO 28011KT 9SM OVC015 M02/M06 A2982 RMK AO2 UPE45 SLP119 P0000 60000 T10221061 53011
KBFD 231953Z AUTO 30013KT 8SM UP OVC017 M02/M06 A2981 RMK AO2 UPB02E10B44SNE1857B25E40 SLP113 P0000 T10221056
KBFD 231853Z AUTO 28011G21KT 6SM -SN OVC018 M02/M06 A2980 RMK AO2 UPB11E30SNE11B17E18B21E27B30 SLP111 P0000 T10171056
KBFD 231753Z AUTO 30015G19KT 4SM -SN BKN016 BKN021 OVC028 M02/M06 A2979 RMK AO2 SLP108 P0001 60003 T10221056 11017 21022 53011
KBFD 231746Z AUTO 28012G20KT 5SM -SN BKN014 OVC021 M02/M06 A2979 RMK AO2 P0001 T10171056
KBFD 231728Z AUTO 29013KT 2SM -SN OVC014 M02/M06 A2978 RMK AO2 P0001 T10221056
KBFD 231719Z AUTO 30013KT 1 3/4SM -SN OVC013 M02/M05 A2978 RMK AO2 P0000 T10221050
KBFD 231702Z AUTO 31013KT 1 3/4SM -SN BKN016 OVC021 M02/M06 A2977 RMK AO2 P0000 T10221056
KBFD 231653Z AUTO 31011KT 2 1/2SM -SN BKN014 BKN019 OVC023 M02/M06 A2977 RMK AO2 SLP101 P0000 T10221056
KBFD 231617Z AUTO 31014KT 2 1/2SM -SN BKN018 OVC024 M02/M06 A2976 RMK AO2 P0000 T10221061
KBFD 231608Z AUTO 30013KT 3SM -SN SCT016 OVC022 M02/M06 A2976 RMK AO2 P0000 T10221061
KBFD 231601Z AUTO 30012KT 2 1/2SM -SN BKN017 OVC024 M02/M06 A2976 RMK AO2 P0000 T10221056
KBFD 231553Z AUTO 29011KT 1 3/4SM -SN OVC016 M02/M06 A2976 RMK AO2 SLP098 P0000 T10221056
KBFD 231546Z AUTO 30010KT 1 1/2SM -SN BKN016 OVC022 M02/M06 A2976 RMK AO2 P0000 T10221056
KBFD 231519Z AUTO 30012KT 2SM -SN BKN018 OVC023 M02/M06 A2976 RMK AO2 P0000 T10221056
KBFD 231453Z AUTO 31013KT 3SM -SN BKN017 OVC022 M02/M06 A2975 RMK AO2 SLP095 P0000 60002 T10221056 53007
KBFD 231353Z AUTO 29012KT 5SM -SN OVC018 M02/M06 A2974 RMK AO2 SLP089 P0000 T10221056
KBFD 231322Z AUTO 29012G20KT 5SM -SN FEW012 BKN018 OVC024 M02/M06 A2973 RMK AO2 P0000 T10221056
KBFD 231308Z AUTO 29013KT 3SM -SN BKN014 OVC026 M02/M05 A2973 RMK AO2 P0000 T10221050
KBFD 231253Z AUTO 29010G19KT 1SM -SN OVC013 M02/M05 A2973 RMK AO2 SLP087 P0002 T10221050
KBFD 231250Z AUTO 29012G19KT 1SM -SN OVC013 M02/M05 A2973 RMK AO2 P0001
KBFD 231236Z AUTO 28009KT 1/2SM SN FZFG FEW008 OVC013 M02/M04 A2973 RMK AO2 P0001 T10221044
KBFD 231229Z AUTO 28010KT 3/4SM -SN BR SCT007 OVC015 M02/M04 A2973 RMK AO2 P0000 T10221044